sensor_id;sensor_type;location;lat;lon;timestamp;pressure;altitude;pressure_sealevel;temperature;humidity
81822;BME280;72257;52.384;4.882;2023-08-24T00:00:54;101817.09;;;17.87;78.18
81822;BME280;72257;52.384;4.882;2023-08-24T00:03:20;101812.00;;;17.95;78.16
81822;BME280;72257;52.384;4.882;2023-08-24T00:05:47;101805.91;;;17.93;77.37
81822;BME280;72257;52.384;4.882;2023-08-24T00:08:12;101811.50;;;17.98;77.79
81822;BME280;72257;52.384;4.882;2023-08-24T00:10:38;101812.94;;;18.01;75.99
81822;BME280;72257;52.384;4.882;2023-08-24T00:13:04;101810.34;;;18.11;76.04
81822;BME280;72257;52.384;4.882;2023-08-24T00:15:30;101815.38;;;18.14;75.93
81822;BME280;72257;52.384;4.882;2023-08-24T00:17:55;101803.50;;;18.14;76.85
81822;BME280;72257;52.384;4.882;2023-08-24T00:20:21;101796.16;;;18.19;76.47
81822;BME280;72257;52.384;4.882;2023-08-24T00:22:46;101798.75;;;18.26;75.51
81822;BME280;72257;52.384;4.882;2023-08-24T00:25:12;101800.25;;;18.33;74.95
81822;BME280;72257;52.384;4.882;2023-08-24T00:27:37;101801.00;;;18.29;74.78
81822;BME280;72257;52.384;4.882;2023-08-24T00:30:04;101802.34;;;18.26;74.92
81822;BME280;72257;52.384;4.882;2023-08-24T00:32:31;101799.84;;;18.25;76.07
81822;BME280;72257;52.384;4.882;2023-08-24T00:34:58;101792.97;;;18.27;76.35
81822;BME280;72257;52.384;4.882;2023-08-24T00:37:23;101785.28;;;18.29;76.13
81822;BME280;72257;52.384;4.882;2023-08-24T00:39:49;101779.94;;;18.40;75.25
81822;BME280;72257;52.384;4.882;2023-08-24T00:42:14;101778.84;;;18.41;74.91
81822;BME280;72257;52.384;4.882;2023-08-24T00:44:40;101788.22;;;18.40;75.07
81822;BME280;72257;52.384;4.882;2023-08-24T00:47:06;101780.94;;;18.33;75.85
81822;BME280;72257;52.384;4.882;2023-08-24T00:49:32;101789.56;;;18.37;76.35
81822;BME280;72257;52.384;4.882;2023-08-24T00:51:57;101785.63;;;18.33;75.68
81822;BME280;72257;52.384;4.882;2023-08-24T00:54:23;101793.16;;;18.38;75.60
81822;BME280;72257;52.384;4.882;2023-08-24T00:56:48;101802.91;;;18.45;74.57
81822;BME280;72257;52.384;4.882;2023-08-24T00:59:14;101810.84;;;18.42;75.26
81822;BME280;72257;52.384;4.882;2023-08-24T01:01:41;101796.66;;;18.33;75.80
81822;BME280;72257;52.384;4.882;2023-08-24T01:04:08;101791.38;;;18.48;74.84
81822;BME280;72257;52.384;4.882;2023-08-24T01:06:36;101789.63;;;18.42;76.01
81822;BME280;72257;52.384;4.882;2023-08-24T01:09:01;101791.56;;;18.42;77.56
81822;BME280;72257;52.384;4.882;2023-08-24T01:14:21;101786.03;;;18.25;77.69
81822;BME280;72257;52.384;4.882;2023-08-24T01:16:50;101780.94;;;18.17;78.84
81822;BME280;72257;52.384;4.882;2023-08-24T01:19:29;101792.47;;;18.14;79.46
81822;BME280;72257;52.384;4.882;2023-08-24T01:22:01;101800.50;;;18.15;78.32
81822;BME280;72257;52.384;4.882;2023-08-24T01:24:40;101799.41;;;18.16;78.81
81822;BME280;72257;52.384;4.882;2023-08-24T01:27:09;101794.72;;;18.17;79.04
81822;BME280;72257;52.384;4.882;2023-08-24T01:29:35;101772.59;;;18.12;79.29
81822;BME280;72257;52.384;4.882;2023-08-24T01:32:02;101772.34;;;18.13;80.55
81822;BME280;72257;52.384;4.882;2023-08-24T01:34:28;101764.47;;;18.05;80.20
81822;BME280;72257;52.384;4.882;2023-08-24T01:36:53;101776.94;;;18.08;80.24
81822;BME280;72257;52.384;4.882;2023-08-24T01:39:28;101767.25;;;18.05;80.14
81822;BME280;72257;52.384;4.882;2023-08-24T01:41:56;101763.06;;;18.02;80.00
81822;BME280;72257;52.384;4.882;2023-08-24T01:44:25;101771.00;;;17.99;80.15
81822;BME280;72257;52.384;4.882;2023-08-24T01:46:53;101755.53;;;17.98;80.30
81822;BME280;72257;52.384;4.882;2023-08-24T01:49:19;101764.31;;;18.12;79.60
81822;BME280;72257;52.384;4.882;2023-08-24T01:51:46;101761.06;;;18.15;78.60
81822;BME280;72257;52.384;4.882;2023-08-24T01:54:12;101757.63;;;18.08;79.72
81822;BME280;72257;52.384;4.882;2023-08-24T01:56:37;101757.81;;;18.01;79.95
81822;BME280;72257;52.384;4.882;2023-08-24T01:59:03;101755.03;;;18.01;80.06
81822;BME280;72257;52.384;4.882;2023-08-24T02:01:28;101742.84;;;17.97;78.74
81822;BME280;72257;52.384;4.882;2023-08-24T02:03:53;101741.44;;;17.94;78.84
81822;BME280;72257;52.384;4.882;2023-08-24T02:06:19;101742.25;;;17.95;78.76
81822;BME280;72257;52.384;4.882;2023-08-24T02:08:44;101743.09;;;17.95;79.84
81822;BME280;72257;52.384;4.882;2023-08-24T02:11:10;101738.66;;;17.94;79.42
81822;BME280;72257;52.384;4.882;2023-08-24T02:13:35;101731.81;;;17.97;79.57
81822;BME280;72257;52.384;4.882;2023-08-24T02:16:08;101731.00;;;17.96;78.84
81822;BME280;72257;52.384;4.882;2023-08-24T02:18:37;101732.50;;;17.87;79.89
81822;BME280;72257;52.384;4.882;2023-08-24T02:21:09;101729.22;;;17.90;80.15
81822;BME280;72257;52.384;4.882;2023-08-24T02:23:36;101727.31;;;17.91;80.29
81822;BME280;72257;52.384;4.882;2023-08-24T02:26:02;101730.66;;;17.93;80.47
81822;BME280;72257;52.384;4.882;2023-08-24T02:28:28;101725.38;;;17.91;80.06
81822;BME280;72257;52.384;4.882;2023-08-24T02:30:53;101723.13;;;17.88;80.29
81822;BME280;72257;52.384;4.882;2023-08-24T02:33:19;101716.94;;;17.81;80.02
81822;BME280;72257;52.384;4.882;2023-08-24T02:35:47;101708.94;;;17.80;80.54
81822;BME280;72257;52.384;4.882;2023-08-24T02:38:12;101709.69;;;17.75;80.26
81822;BME280;72257;52.384;4.882;2023-08-24T02:40:37;101721.19;;;17.72;81.54
81822;BME280;72257;52.384;4.882;2023-08-24T02:43:03;101717.28;;;17.68;81.69
81822;BME280;72257;52.384;4.882;2023-08-24T02:45:28;101719.31;;;17.61;82.29
81822;BME280;72257;52.384;4.882;2023-08-24T02:47:53;101720.66;;;17.58;82.22
81822;BME280;72257;52.384;4.882;2023-08-24T02:50:19;101709.53;;;17.53;83.23
81822;BME280;72257;52.384;4.882;2023-08-24T02:52:44;101700.69;;;17.51;83.59
81822;BME280;72257;52.384;4.882;2023-08-24T02:55:10;101691.50;;;17.46;83.78
81822;BME280;72257;52.384;4.882;2023-08-24T02:57:36;101684.31;;;17.45;84.39
81822;BME280;72257;52.384;4.882;2023-08-24T03:00:02;101686.06;;;17.34;84.39
81822;BME280;72257;52.384;4.882;2023-08-24T03:02:28;101680.06;;;17.37;85.43
81822;BME280;72257;52.384;4.882;2023-08-24T03:04:54;101680.06;;;17.37;85.64
81822;BME280;72257;52.384;4.882;2023-08-24T03:07:52;101674.78;;;17.35;84.58
81822;BME280;72257;52.384;4.882;2023-08-24T03:10:17;101680.47;;;17.29;85.33
81822;BME280;72257;52.384;4.882;2023-08-24T03:12:42;101671.38;;;17.28;85.91
81822;BME280;72257;52.384;4.882;2023-08-24T03:15:08;101674.94;;;17.29;86.03
81822;BME280;72257;52.384;4.882;2023-08-24T03:17:33;101668.69;;;17.33;84.69
81822;BME280;72257;52.384;4.882;2023-08-24T03:19:58;101663.94;;;17.29;85.38
81822;BME280;72257;52.384;4.882;2023-08-24T03:22:24;101666.69;;;17.29;85.85
81822;BME280;72257;52.384;4.882;2023-08-24T03:24:49;101659.00;;;17.31;86.31
81822;BME280;72257;52.384;4.882;2023-08-24T03:27:14;101655.59;;;17.24;86.06
81822;BME280;72257;52.384;4.882;2023-08-24T03:29:39;101663.59;;;17.25;86.19
81822;BME280;72257;52.384;4.882;2023-08-24T03:32:05;101659.06;;;17.19;85.74
81822;BME280;72257;52.384;4.882;2023-08-24T03:34:30;101656.56;;;17.18;86.42
81822;BME280;72257;52.384;4.882;2023-08-24T03:36:56;101659.31;;;17.18;86.60
81822;BME280;72257;52.384;4.882;2023-08-24T03:39:21;101659.91;;;17.20;86.62
81822;BME280;72257;52.384;4.882;2023-08-24T03:41:47;101659.81;;;17.15;86.31
81822;BME280;72257;52.384;4.882;2023-08-24T03:44:12;101650.88;;;17.07;86.70
81822;BME280;72257;52.384;4.882;2023-08-24T03:46:37;101657.22;;;17.08;87.26
81822;BME280;72257;52.384;4.882;2023-08-24T03:49:02;101655.88;;;17.11;86.95
81822;BME280;72257;52.384;4.882;2023-08-24T03:51:28;101654.22;;;17.10;86.98
81822;BME280;72257;52.384;4.882;2023-08-24T03:53:53;101648.72;;;17.10;86.23
81822;BME280;72257;52.384;4.882;2023-08-24T03:56:18;101648.97;;;17.08;86.61
81822;BME280;72257;52.384;4.882;2023-08-24T03:58:44;101650.03;;;17.07;85.84
81822;BME280;72257;52.384;4.882;2023-08-24T04:01:12;101647.78;;;17.04;85.55
81822;BME280;72257;52.384;4.882;2023-08-24T04:03:37;101659.88;;;17.03;85.38
81822;BME280;72257;52.384;4.882;2023-08-24T04:06:02;101657.84;;;16.98;85.71
81822;BME280;72257;52.384;4.882;2023-08-24T04:08:28;101652.59;;;16.97;86.32
81822;BME280;72257;52.384;4.882;2023-08-24T04:10:53;101663.84;;;16.95;86.40
81822;BME280;72257;52.384;4.882;2023-08-24T04:13:19;101657.75;;;16.93;86.75
81822;BME280;72257;52.384;4.882;2023-08-24T04:15:44;101662.19;;;16.94;86.45
81822;BME280;72257;52.384;4.882;2023-08-24T04:18:09;101663.00;;;16.95;87.00
81822;BME280;72257;52.384;4.882;2023-08-24T04:20:36;101667.44;;;16.96;86.64
81822;BME280;72257;52.384;4.882;2023-08-24T04:23:02;101653.34;;;16.92;87.17
81822;BME280;72257;52.384;4.882;2023-08-24T04:25:27;101652.75;;;16.90;86.89
81822;BME280;72257;52.384;4.882;2023-08-24T04:27:54;101652.50;;;16.92;87.54
81822;BME280;72257;52.384;4.882;2023-08-24T04:30:19;101656.69;;;16.94;87.78
81822;BME280;72257;52.384;4.882;2023-08-24T04:32:45;101646.75;;;16.93;86.54
81822;BME280;72257;52.384;4.882;2023-08-24T04:35:10;101647.59;;;16.94;86.66
81822;BME280;72257;52.384;4.882;2023-08-24T04:37:35;101653.69;;;16.96;87.55
81822;BME280;72257;52.384;4.882;2023-08-24T04:40:02;101650.94;;;16.96;87.32
81822;BME280;72257;52.384;4.882;2023-08-24T04:42:29;101652.00;;;16.95;86.95
81822;BME280;72257;52.384;4.882;2023-08-24T04:44:54;101647.09;;;16.97;86.63
81822;BME280;72257;52.384;4.882;2023-08-24T04:47:20;101651.03;;;17.01;86.98
81822;BME280;72257;52.384;4.882;2023-08-24T04:49:45;101652.94;;;17.00;87.06
81822;BME280;72257;52.384;4.882;2023-08-24T04:52:10;101657.94;;;17.03;86.37
81822;BME280;72257;52.384;4.882;2023-08-24T04:54:36;101655.28;;;17.08;86.74
81822;BME280;72257;52.384;4.882;2023-08-24T04:57:01;101653.88;;;17.06;86.53
81822;BME280;72257;52.384;4.882;2023-08-24T04:59:26;101646.44;;;17.06;86.41
81822;BME280;72257;52.384;4.882;2023-08-24T05:01:51;101636.03;;;17.08;86.55
81822;BME280;72257;52.384;4.882;2023-08-24T05:04:17;101635.53;;;17.12;86.84
81822;BME280;72257;52.384;4.882;2023-08-24T05:06:42;101623.63;;;17.23;86.92
81822;BME280;72257;52.384;4.882;2023-08-24T05:09:07;101617.97;;;17.29;86.23
81822;BME280;72257;52.384;4.882;2023-08-24T05:11:33;101616.38;;;17.33;85.40
81822;BME280;72257;52.384;4.882;2023-08-24T05:13:58;101607.03;;;17.34;86.14
81822;BME280;72257;52.384;4.882;2023-08-24T05:16:24;101621.22;;;17.43;85.06
81822;BME280;72257;52.384;4.882;2023-08-24T05:18:49;101615.72;;;17.43;84.82
81822;BME280;72257;52.384;4.882;2023-08-24T05:21:15;101610.28;;;17.48;84.97
81822;BME280;72257;52.384;4.882;2023-08-24T05:23:40;101617.56;;;17.54;84.85
81822;BME280;72257;52.384;4.882;2023-08-24T05:26:06;101611.81;;;17.56;85.45
81822;BME280;72257;52.384;4.882;2023-08-24T05:28:31;101610.22;;;17.60;85.59
81822;BME280;72257;52.384;4.882;2023-08-24T05:30:57;101612.31;;;17.69;85.57
81822;BME280;72257;52.384;4.882;2023-08-24T05:33:24;101608.06;;;17.79;85.42
81822;BME280;72257;52.384;4.882;2023-08-24T05:35:50;101594.19;;;17.90;84.96
81822;BME280;72257;52.384;4.882;2023-08-24T05:38:15;101594.31;;;18.00;84.35
81822;BME280;72257;52.384;4.882;2023-08-24T05:40:42;101592.72;;;18.04;84.69
81822;BME280;72257;52.384;4.882;2023-08-24T05:43:09;101586.97;;;18.06;84.48
81822;BME280;72257;52.384;4.882;2023-08-24T05:45:34;101587.34;;;18.15;84.29
81822;BME280;72257;52.384;4.882;2023-08-24T05:48:00;101600.19;;;18.26;84.22
81822;BME280;72257;52.384;4.882;2023-08-24T05:50:25;101600.25;;;18.31;84.23
81822;BME280;72257;52.384;4.882;2023-08-24T05:52:50;101589.88;;;18.38;83.28
81822;BME280;72257;52.384;4.882;2023-08-24T05:55:16;101590.44;;;18.40;83.95
81822;BME280;72257;52.384;4.882;2023-08-24T05:57:41;101586.09;;;18.44;83.39
81822;BME280;72257;52.384;4.882;2023-08-24T06:00:07;101571.41;;;18.39;83.27
81822;BME280;72257;52.384;4.882;2023-08-24T06:02:35;101566.25;;;18.47;82.67
81822;BME280;72257;52.384;4.882;2023-08-24T06:05:01;101558.09;;;18.57;82.40
81822;BME280;72257;52.384;4.882;2023-08-24T06:07:26;101559.50;;;18.60;81.92
81822;BME280;72257;52.384;4.882;2023-08-24T06:09:51;101562.41;;;18.70;81.46
81822;BME280;72257;52.384;4.882;2023-08-24T06:12:16;101566.94;;;18.81;81.13
81822;BME280;72257;52.384;4.882;2023-08-24T06:14:42;101563.16;;;18.87;80.92
81822;BME280;72257;52.384;4.882;2023-08-24T06:17:07;101544.97;;;18.91;80.25
81822;BME280;72257;52.384;4.882;2023-08-24T06:19:32;101544.22;;;19.01;79.85
81822;BME280;72257;52.384;4.882;2023-08-24T06:21:58;101547.13;;;19.16;79.80
81822;BME280;72257;52.384;4.882;2023-08-24T06:24:23;101527.88;;;19.26;78.85
81822;BME280;72257;52.384;4.882;2023-08-24T06:26:48;101532.34;;;19.32;78.31
81822;BME280;72257;52.384;4.882;2023-08-24T06:29:13;101528.75;;;19.32;77.99
81822;BME280;72257;52.384;4.882;2023-08-24T06:31:39;101532.13;;;19.39;77.38
81822;BME280;72257;52.384;4.882;2023-08-24T06:34:04;101532.16;;;19.44;76.85
81822;BME280;72257;52.384;4.882;2023-08-24T06:36:29;101531.44;;;19.54;75.96
81822;BME280;72257;52.384;4.882;2023-08-24T06:38:55;101533.72;;;19.67;76.50
81822;BME280;72257;52.384;4.882;2023-08-24T06:41:20;101531.03;;;19.77;76.33
81822;BME280;72257;52.384;4.882;2023-08-24T06:43:45;101528.34;;;19.92;75.67
81822;BME280;72257;52.384;4.882;2023-08-24T06:46:11;101521.78;;;20.04;75.47
81822;BME280;72257;52.384;4.882;2023-08-24T06:48:36;101517.09;;;20.09;75.83
81822;BME280;72257;52.384;4.882;2023-08-24T06:51:04;101510.72;;;20.04;75.59
81822;BME280;72257;52.384;4.882;2023-08-24T06:53:29;101507.69;;;20.10;75.82
81822;BME280;72257;52.384;4.882;2023-08-24T06:55:55;101512.41;;;20.15;75.82
81822;BME280;72257;52.384;4.882;2023-08-24T06:58:21;101512.13;;;20.11;75.35
81822;BME280;72257;52.384;4.882;2023-08-24T07:00:46;101518.22;;;20.13;75.53
81822;BME280;72257;52.384;4.882;2023-08-24T07:03:11;101521.59;;;20.25;75.01
81822;BME280;72257;52.384;4.882;2023-08-24T07:05:37;101524.78;;;20.65;73.67
81822;BME280;72257;52.384;4.882;2023-08-24T07:08:02;101527.56;;;20.80;72.83
81822;BME280;72257;52.384;4.882;2023-08-24T07:10:28;101523.72;;;20.81;72.77
81822;BME280;72257;52.384;4.882;2023-08-24T07:12:54;101507.34;;;20.74;73.23
81822;BME280;72257;52.384;4.882;2023-08-24T07:15:19;101511.84;;;20.85;72.00
81822;BME280;72257;52.384;4.882;2023-08-24T07:17:44;101518.75;;;21.03;70.71
81822;BME280;72257;52.384;4.882;2023-08-24T07:20:10;101507.69;;;21.18;71.07
81822;BME280;72257;52.384;4.882;2023-08-24T07:22:38;101499.09;;;21.15;70.72
81822;BME280;72257;52.384;4.882;2023-08-24T07:25:04;101480.56;;;21.26;71.40
81822;BME280;72257;52.384;4.882;2023-08-24T07:27:32;101464.47;;;21.02;71.26
81822;BME280;72257;52.384;4.882;2023-08-24T07:29:57;101473.91;;;21.11;71.54
81822;BME280;72257;52.384;4.882;2023-08-24T07:32:23;101465.03;;;20.99;72.17
81822;BME280;72257;52.384;4.882;2023-08-24T07:34:49;101479.44;;;21.06;72.83
81822;BME280;72257;52.384;4.882;2023-08-24T07:37:14;101477.75;;;21.20;71.58
81822;BME280;72257;52.384;4.882;2023-08-24T07:39:39;101480.28;;;21.27;71.88
81822;BME280;72257;52.384;4.882;2023-08-24T07:42:05;101482.44;;;21.55;70.71
81822;BME280;72257;52.384;4.882;2023-08-24T07:44:30;101481.31;;;21.72;69.66
81822;BME280;72257;52.384;4.882;2023-08-24T07:46:55;101471.03;;;21.77;69.73
81822;BME280;72257;52.384;4.882;2023-08-24T07:49:21;101470.69;;;21.94;69.32
81822;BME280;72257;52.384;4.882;2023-08-24T07:51:46;101468.44;;;22.06;68.18
81822;BME280;72257;52.384;4.882;2023-08-24T07:54:12;101465.84;;;22.25;67.28
81822;BME280;72257;52.384;4.882;2023-08-24T07:56:41;101459.59;;;22.48;67.08
81822;BME280;72257;52.384;4.882;2023-08-24T07:59:06;101451.09;;;22.74;66.22
81822;BME280;72257;52.384;4.882;2023-08-24T08:01:32;101453.63;;;22.70;66.39
81822;BME280;72257;52.384;4.882;2023-08-24T08:03:57;101453.56;;;22.80;64.85
81822;BME280;72257;52.384;4.882;2023-08-24T08:06:23;101459.59;;;22.93;64.94
81822;BME280;72257;52.384;4.882;2023-08-24T08:08:50;101440.16;;;23.22;64.01
81822;BME280;72257;52.384;4.882;2023-08-24T08:11:16;101437.03;;;22.99;63.94
81822;BME280;72257;52.384;4.882;2023-08-24T08:13:42;101433.56;;;23.12;64.32
81822;BME280;72257;52.384;4.882;2023-08-24T08:16:07;101449.16;;;23.08;63.50
81822;BME280;72257;52.384;4.882;2023-08-24T08:18:33;101458.97;;;23.30;62.26
81822;BME280;72257;52.384;4.882;2023-08-24T08:20:59;101455.75;;;23.46;62.51
81822;BME280;72257;52.384;4.882;2023-08-24T08:23:25;101450.91;;;23.81;61.34
81822;BME280;72257;52.384;4.882;2023-08-24T08:25:50;101445.53;;;23.90;60.45
81822;BME280;72257;52.384;4.882;2023-08-24T08:28:17;101446.66;;;23.65;60.76
81822;BME280;72257;52.384;4.882;2023-08-24T08:30:43;101436.91;;;23.67;60.67
81822;BME280;72257;52.384;4.882;2023-08-24T08:33:08;101450.03;;;23.62;61.18
81822;BME280;72257;52.384;4.882;2023-08-24T08:35:33;101458.63;;;23.65;60.44
81822;BME280;72257;52.384;4.882;2023-08-24T08:37:59;101453.94;;;23.61;59.10
81822;BME280;72257;52.384;4.882;2023-08-24T08:40:25;101439.88;;;23.47;59.20
81822;BME280;72257;52.384;4.882;2023-08-24T08:42:58;101437.84;;;23.58;59.95
81822;BME280;72257;52.384;4.882;2023-08-24T08:45:25;101435.31;;;23.61;59.97
81822;BME280;72257;52.384;4.882;2023-08-24T08:48:00;101425.19;;;23.70;57.93
81822;BME280;72257;52.384;4.882;2023-08-24T08:50:26;101427.97;;;23.70;59.13
81822;BME280;72257;52.384;4.882;2023-08-24T08:52:51;101432.31;;;23.53;59.04
81822;BME280;72257;52.384;4.882;2023-08-24T08:55:18;101430.19;;;23.44;58.32
81822;BME280;72257;52.384;4.882;2023-08-24T08:57:48;101431.84;;;23.17;57.86
81822;BME280;72257;52.384;4.882;2023-08-24T09:00:15;101426.16;;;23.03;58.48
81822;BME280;72257;52.384;4.882;2023-08-24T09:02:43;101410.91;;;23.00;59.80
81822;BME280;72257;52.384;4.882;2023-08-24T09:05:09;101397.97;;;22.86;59.49
81822;BME280;72257;52.384;4.882;2023-08-24T09:07:35;101392.09;;;22.92;60.21
81822;BME280;72257;52.384;4.882;2023-08-24T09:10:02;101375.75;;;22.86;60.56
81822;BME280;72257;52.384;4.882;2023-08-24T09:12:31;101372.44;;;22.83;61.38
81822;BME280;72257;52.384;4.882;2023-08-24T09:14:57;101373.03;;;22.75;61.27
81822;BME280;72257;52.384;4.882;2023-08-24T09:17:23;101369.56;;;22.60;61.60
81822;BME280;72257;52.384;4.882;2023-08-24T09:19:50;101370.97;;;22.57;62.84
81822;BME280;72257;52.384;4.882;2023-08-24T09:22:16;101380.22;;;22.47;62.07
81822;BME280;72257;52.384;4.882;2023-08-24T09:24:41;101385.03;;;22.37;62.63
81822;BME280;72257;52.384;4.882;2023-08-24T09:27:20;101397.06;;;22.22;63.49
81822;BME280;72257;52.384;4.882;2023-08-24T09:29:50;101387.38;;;22.14;63.83
81822;BME280;72257;52.384;4.882;2023-08-24T09:32:22;101378.56;;;22.07;64.46
81822;BME280;72257;52.384;4.882;2023-08-24T09:34:47;101373.56;;;21.99;64.56
81822;BME280;72257;52.384;4.882;2023-08-24T09:37:16;101380.81;;;21.95;65.49
81822;BME280;72257;52.384;4.882;2023-08-24T09:39:42;101392.75;;;21.91;65.73
81822;BME280;72257;52.384;4.882;2023-08-24T09:42:07;101386.13;;;21.86;66.50
81822;BME280;72257;52.384;4.882;2023-08-24T09:44:32;101381.16;;;21.83;66.83
81822;BME280;72257;52.384;4.882;2023-08-24T09:46:58;101373.13;;;21.82;66.05
81822;BME280;72257;52.384;4.882;2023-08-24T09:49:24;101364.25;;;21.80;66.91
81822;BME280;72257;52.384;4.882;2023-08-24T09:51:55;101359.81;;;21.79;67.30
81822;BME280;72257;52.384;4.882;2023-08-24T09:54:26;101346.50;;;21.81;67.09
81822;BME280;72257;52.384;4.882;2023-08-24T09:56:54;101352.59;;;21.83;66.32
81822;BME280;72257;52.384;4.882;2023-08-24T09:59:21;101343.16;;;21.84;66.71
81822;BME280;72257;52.384;4.882;2023-08-24T10:01:50;101345.06;;;21.88;67.70
81822;BME280;72257;52.384;4.882;2023-08-24T10:04:24;101357.56;;;21.86;67.94
81822;BME280;72257;52.384;4.882;2023-08-24T10:06:54;101369.78;;;21.85;67.30
81822;BME280;72257;52.384;4.882;2023-08-24T10:12:18;101397.16;;;21.97;67.24
81822;BME280;72257;52.384;4.882;2023-08-24T10:14:53;101408.56;;;21.95;67.96
81822;BME280;72257;52.384;4.882;2023-08-24T10:17:22;101393.34;;;21.87;69.84
81822;BME280;72257;52.384;4.882;2023-08-24T10:19:51;101401.13;;;21.80;70.74
81822;BME280;72257;52.384;4.882;2023-08-24T10:22:19;101405.81;;;21.85;70.71
81822;BME280;72257;52.384;4.882;2023-08-24T10:24:44;101403.66;;;21.77;71.30
81822;BME280;72257;52.384;4.882;2023-08-24T10:27:11;101413.13;;;21.66;72.16
81822;BME280;72257;52.384;4.882;2023-08-24T10:29:38;101409.53;;;21.60;72.93
81822;BME280;72257;52.384;4.882;2023-08-24T10:32:03;101408.72;;;21.54;75.43
81822;BME280;72257;52.384;4.882;2023-08-24T10:34:29;101414.56;;;21.53;77.09
81822;BME280;72257;52.384;4.882;2023-08-24T10:36:55;101402.13;;;21.40;77.91
81822;BME280;72257;52.384;4.882;2023-08-24T10:39:27;101404.09;;;21.30;79.94
81822;BME280;72257;52.384;4.882;2023-08-24T10:41:53;101394.41;;;21.27;79.49
81822;BME280;72257;52.384;4.882;2023-08-24T10:44:24;101394.94;;;21.19;82.43
81822;BME280;72257;52.384;4.882;2023-08-24T10:47:11;101400.22;;;21.05;82.33
81822;BME280;72257;52.384;4.882;2023-08-24T10:49:37;101405.47;;;20.71;81.98
81822;BME280;72257;52.384;4.882;2023-08-24T10:52:22;101424.28;;;20.59;83.02
81822;BME280;72257;52.384;4.882;2023-08-24T10:54:49;101441.66;;;20.29;85.57
81822;BME280;72257;52.384;4.882;2023-08-24T10:57:22;101430.47;;;19.93;86.16
81822;BME280;72257;52.384;4.882;2023-08-24T11:02:47;101431.78;;;19.76;86.94
81822;BME280;72257;52.384;4.882;2023-08-24T11:08:05;101436.13;;;19.56;87.39
81822;BME280;72257;52.384;4.882;2023-08-24T11:10:45;101423.75;;;19.69;85.31
81822;BME280;72257;52.384;4.882;2023-08-24T11:13:16;101404.25;;;20.06;84.16
81822;BME280;72257;52.384;4.882;2023-08-24T11:15:43;101394.97;;;20.58;82.04
81822;BME280;72257;52.384;4.882;2023-08-24T11:18:21;101380.56;;;21.02;80.34
81822;BME280;72257;52.384;4.882;2023-08-24T11:20:56;101365.56;;;21.18;79.05
81822;BME280;72257;52.384;4.882;2023-08-24T11:23:23;101364.44;;;21.39;78.04
81822;BME280;72257;52.384;4.882;2023-08-24T11:25:53;101359.50;;;21.26;77.25
81822;BME280;72257;52.384;4.882;2023-08-24T11:28:23;101354.13;;;21.55;77.20
81822;BME280;72257;52.384;4.882;2023-08-24T11:30:49;101352.34;;;21.74;77.77
81822;BME280;72257;52.384;4.882;2023-08-24T11:33:16;101346.47;;;21.86;77.34
81822;BME280;72257;52.384;4.882;2023-08-24T11:35:44;101341.97;;;21.95;76.91
81822;BME280;72257;52.384;4.882;2023-08-24T11:38:09;101326.72;;;21.43;77.71
81822;BME280;72257;52.384;4.882;2023-08-24T11:40:35;101322.13;;;20.98;80.27
81822;BME280;72257;52.384;4.882;2023-08-24T11:43:00;101312.75;;;20.74;81.39
81822;BME280;72257;52.384;4.882;2023-08-24T11:45:33;101311.59;;;21.00;81.50
81822;BME280;72257;52.384;4.882;2023-08-24T11:48:00;101302.16;;;21.06;80.66
81822;BME280;72257;52.384;4.882;2023-08-24T11:50:30;101304.53;;;21.48;78.44
81822;BME280;72257;52.384;4.882;2023-08-24T11:52:55;101309.91;;;21.79;77.64
81822;BME280;72257;52.384;4.882;2023-08-24T11:55:24;101301.16;;;21.57;76.49
81822;BME280;72257;52.384;4.882;2023-08-24T11:57:50;101302.31;;;21.45;77.89
81822;BME280;72257;52.384;4.882;2023-08-24T12:00:18;101298.84;;;21.74;76.37
81822;BME280;72257;52.384;4.882;2023-08-24T12:02:45;101294.75;;;22.44;74.83
81822;BME280;72257;52.384;4.882;2023-08-24T12:05:31;101278.97;;;22.98;72.68
81822;BME280;72257;52.384;4.882;2023-08-24T12:07:56;101276.56;;;23.58;70.58
81822;BME280;72257;52.384;4.882;2023-08-24T12:10:21;101270.81;;;23.49;70.30
81822;BME280;72257;52.384;4.882;2023-08-24T12:12:47;101287.88;;;22.95;71.20
81822;BME280;72257;52.384;4.882;2023-08-24T12:15:19;101272.91;;;23.38;70.06
81822;BME280;72257;52.384;4.882;2023-08-24T12:17:46;101274.75;;;24.04;68.27
81822;BME280;72257;52.384;4.882;2023-08-24T12:20:20;101269.34;;;24.46;66.59
81822;BME280;72257;52.384;4.882;2023-08-24T12:22:52;101272.09;;;24.13;66.73
81822;BME280;72257;52.384;4.882;2023-08-24T12:25:21;101267.13;;;24.61;65.62
81822;BME280;72257;52.384;4.882;2023-08-24T12:27:46;101258.50;;;24.90;65.91
81822;BME280;72257;52.384;4.882;2023-08-24T12:30:12;101256.03;;;25.16;63.58
81822;BME280;72257;52.384;4.882;2023-08-24T12:32:44;101251.81;;;25.05;64.38
81822;BME280;72257;52.384;4.882;2023-08-24T12:35:10;101235.81;;;25.11;64.54
81822;BME280;72257;52.384;4.882;2023-08-24T12:37:36;101221.44;;;25.17;63.92
81822;BME280;72257;52.384;4.882;2023-08-24T12:40:06;101212.56;;;24.88;63.88
81822;BME280;72257;52.384;4.882;2023-08-24T12:42:32;101204.50;;;24.59;64.65
81822;BME280;72257;52.384;4.882;2023-08-24T12:44:57;101204.41;;;24.18;66.39
81822;BME280;72257;52.384;4.882;2023-08-24T12:47:23;101194.31;;;24.22;66.19
81822;BME280;72257;52.384;4.882;2023-08-24T12:49:48;101185.31;;;23.78;67.59
81822;BME280;72257;52.384;4.882;2023-08-24T12:52:15;101182.97;;;23.48;68.88
81822;BME280;72257;52.384;4.882;2023-08-24T12:54:41;101192.44;;;23.47;69.52
81822;BME280;72257;52.384;4.882;2023-08-24T12:57:06;101183.69;;;23.59;69.17
81822;BME280;72257;52.384;4.882;2023-08-24T12:59:32;101166.28;;;23.48;68.10